N1068X KILM-KPGV
Flight info
| Callsign | N1068X |
|---|---|
| Flight time | 0h 58m |
| Altitude | 5000 |
| Route | DIRECT |
| Aircraft | M20P/L-VGD/C |
Departure
| Time | 2026-05-05 02:11 |
|---|---|
| Airport | Wilmington International Airport (KILM) |
Arrival
| Time | 2026-05-05 03:10 |
|---|---|
| Airport | Pitt-Greenville Airport (KPGV) |
| Time | Latitude | Longitude | Altitude | Speed | Heading |
|---|---|---|---|---|---|
| 2026-05-05 01:59 | 34.27071 | -77.90782 | 28 ft | 0 kts | 189° |
| 2026-05-05 02:05 | 34.27063 | -77.90758 | 28 ft | 4 kts | 37° |
| 2026-05-05 02:06 | 34.27070 | -77.90752 | 28 ft | 1 kts | 32° |
| 2026-05-05 02:06 | 34.27106 | -77.90726 | 28 ft | 9 kts | 15° |
| 2026-05-05 02:06 | 34.27166 | -77.90725 | 29 ft | 9 kts | 335° |
| 2026-05-05 02:06 | 34.27218 | -77.90758 | 29 ft | 8 kts | 330° |
| 2026-05-05 02:07 | 34.27276 | -77.90795 | 29 ft | 11 kts | 331° |
| 2026-05-05 02:07 | 34.27354 | -77.90847 | 30 ft | 15 kts | 329° |
| 2026-05-05 02:07 | 34.27449 | -77.90907 | 30 ft | 16 kts | 340° |
| 2026-05-05 02:07 | 34.27575 | -77.90941 | 31 ft | 21 kts | 349° |
| 2026-05-05 02:08 | 34.27718 | -77.90974 | 32 ft | 21 kts | 349° |
| 2026-05-05 02:08 | 34.27866 | -77.91008 | 32 ft | 23 kts | 348° |
| 2026-05-05 02:08 | 34.28025 | -77.91044 | 33 ft | 23 kts | 349° |
| 2026-05-05 02:08 | 34.28131 | -77.91070 | 34 ft | 23 kts | 347° |
| 2026-05-05 02:09 | 34.28253 | -77.91110 | 35 ft | 15 kts | 19° |
| 2026-05-05 02:09 | 34.28275 | -77.91086 | 35 ft | 0 kts | 58° |
| 2026-05-05 02:09 | 34.28291 | -77.91030 | 37 ft | 11 kts | 75° |
| 2026-05-05 02:10 | 34.28277 | -77.90984 | 37 ft | 0 kts | 157° |
| 2026-05-05 02:10 | 34.28219 | -77.90957 | 37 ft | 31 kts | 159° |
| 2026-05-05 02:10 | 34.27872 | -77.90799 | 109 ft | 61 kts | 162° |
| 2026-05-05 02:10 | 34.27479 | -77.90649 | 331 ft | 58 kts | 162° |
| 2026-05-05 02:11 | 34.27035 | -77.90484 | 408 ft | 78 kts | 163° |
| 2026-05-05 02:11 | 34.26495 | -77.90243 | 614 ft | 89 kts | 160° |
| 2026-05-05 02:11 | 34.25907 | -77.89934 | 881 ft | 97 kts | 161° |
| 2026-05-05 02:11 | 34.25317 | -77.89599 | 1263 ft | 91 kts | 163° |
| 2026-05-05 02:12 | 34.24728 | -77.89236 | 1444 ft | 98 kts | 161° |
| 2026-05-05 02:12 | 34.23533 | -77.88442 | 1949 ft | 100 kts | 154° |
| 2026-05-05 02:12 | 34.22956 | -77.88028 | 2203 ft | 97 kts | 160° |
| 2026-05-05 02:13 | 34.22344 | -77.87589 | 2363 ft | 106 kts | 156° |
| 2026-05-05 02:13 | 34.21756 | -77.87078 | 2668 ft | 102 kts | 150° |
| 2026-05-05 02:13 | 34.21160 | -77.86584 | 2846 ft | 108 kts | 155° |
| 2026-05-05 02:13 | 34.20506 | -77.86154 | 3103 ft | 107 kts | 158° |
| 2026-05-05 02:14 | 34.19840 | -77.85755 | 3304 ft | 110 kts | 160° |
| 2026-05-05 02:14 | 34.19143 | -77.85304 | 3530 ft | 113 kts | 158° |
| 2026-05-05 02:14 | 34.18456 | -77.84887 | 3814 ft | 111 kts | 156° |
| 2026-05-05 02:14 | 34.17812 | -77.84289 | 3944 ft | 126 kts | 132° |
| 2026-05-05 02:15 | 34.17632 | -77.83211 | 4089 ft | 139 kts | 78° |
| 2026-05-05 02:15 | 34.18170 | -77.82337 | 4422 ft | 129 kts | 26° |
| 2026-05-05 02:15 | 34.19010 | -77.82045 | 4674 ft | 124 kts | 11° |
| 2026-05-05 02:15 | 34.19817 | -77.81826 | 4985 ft | 115 kts | 4° |
| 2026-05-05 02:16 | 34.20665 | -77.81758 | 5038 ft | 128 kts | 354° |
| 2026-05-05 02:16 | 34.21587 | -77.81773 | 5037 ft | 137 kts | 359° |
| 2026-05-05 02:16 | 34.22534 | -77.81662 | 5115 ft | 138 kts | 3° |
| 2026-05-05 02:16 | 34.23470 | -77.81440 | 5148 ft | 142 kts | 14° |
| 2026-05-05 02:17 | 34.24446 | -77.81079 | 5098 ft | 149 kts | 14° |
| 2026-05-05 02:17 | 34.25438 | -77.80683 | 5117 ft | 150 kts | 13° |
| 2026-05-05 02:17 | 34.26459 | -77.80467 | 5128 ft | 150 kts | 9° |
| 2026-05-05 02:17 | 34.27442 | -77.79955 | 5108 ft | 155 kts | 19° |
| 2026-05-05 02:18 | 34.28473 | -77.79570 | 5085 ft | 156 kts | 11° |
| 2026-05-05 02:18 | 34.29531 | -77.79249 | 5067 ft | 157 kts | 11° |
| 2026-05-05 02:18 | 34.30597 | -77.78926 | 5056 ft | 157 kts | 10° |
| 2026-05-05 02:18 | 34.31661 | -77.78609 | 5047 ft | 158 kts | 11° |
| 2026-05-05 02:19 | 34.32725 | -77.78290 | 5049 ft | 158 kts | 11° |
| 2026-05-05 02:19 | 34.33777 | -77.77973 | 5044 ft | 158 kts | 10° |
| 2026-05-05 02:19 | 34.34843 | -77.77655 | 5048 ft | 158 kts | 11° |
| 2026-05-05 02:19 | 34.35909 | -77.77335 | 5049 ft | 158 kts | 11° |
| 2026-05-05 02:20 | 34.36973 | -77.77015 | 5050 ft | 158 kts | 11° |
| 2026-05-05 02:20 | 34.38043 | -77.76695 | 5049 ft | 158 kts | 11° |
| 2026-05-05 02:20 | 34.39114 | -77.76373 | 5050 ft | 159 kts | 11° |
| 2026-05-05 02:20 | 34.40188 | -77.76050 | 5050 ft | 159 kts | 11° |
| 2026-05-05 02:21 | 34.41263 | -77.75727 | 5047 ft | 159 kts | 11° |
| 2026-05-05 02:21 | 34.42342 | -77.75403 | 5047 ft | 159 kts | 10° |
| 2026-05-05 02:21 | 34.43404 | -77.75084 | 5045 ft | 159 kts | 11° |
| 2026-05-05 02:21 | 34.44476 | -77.74761 | 5044 ft | 159 kts | 11° |
| 2026-05-05 02:22 | 34.45560 | -77.74436 | 5041 ft | 158 kts | 11° |
| 2026-05-05 02:22 | 34.46616 | -77.74116 | 5042 ft | 158 kts | 13° |
| 2026-05-05 02:22 | 34.47564 | -77.73431 | 5033 ft | 160 kts | 36° |
| 2026-05-05 02:22 | 34.48516 | -77.72764 | 5031 ft | 158 kts | 16° |
| 2026-05-05 02:23 | 34.49577 | -77.72420 | 5032 ft | 157 kts | 10° |
| 2026-05-05 02:23 | 34.50645 | -77.72112 | 5035 ft | 158 kts | 11° |
| 2026-05-05 02:23 | 34.51714 | -77.71800 | 5033 ft | 158 kts | 10° |
| 2026-05-05 02:23 | 34.52784 | -77.71485 | 5034 ft | 158 kts | 11° |
| 2026-05-05 02:24 | 34.53856 | -77.71170 | 5033 ft | 158 kts | 10° |
| 2026-05-05 02:24 | 34.54927 | -77.70854 | 5037 ft | 158 kts | 10° |
| 2026-05-05 02:24 | 34.55982 | -77.70543 | 5038 ft | 158 kts | 10° |
| 2026-05-05 02:24 | 34.57052 | -77.70228 | 5041 ft | 158 kts | 10° |
| 2026-05-05 02:25 | 34.58126 | -77.69912 | 5041 ft | 159 kts | 11° |
| 2026-05-05 02:25 | 34.59203 | -77.69594 | 5041 ft | 159 kts | 10° |
| 2026-05-05 02:25 | 34.60279 | -77.69276 | 5040 ft | 159 kts | 11° |
| 2026-05-05 02:25 | 34.61357 | -77.68958 | 5039 ft | 159 kts | 11° |
| 2026-05-05 02:26 | 34.62435 | -77.68640 | 5040 ft | 159 kts | 10° |
| 2026-05-05 02:26 | 34.63510 | -77.68323 | 5041 ft | 159 kts | 10° |
| 2026-05-05 02:26 | 34.64570 | -77.68010 | 5042 ft | 159 kts | 10° |
| 2026-05-05 02:26 | 34.65645 | -77.67693 | 5043 ft | 159 kts | 10° |
| 2026-05-05 02:27 | 34.66720 | -77.67375 | 5044 ft | 159 kts | 11° |
| 2026-05-05 02:27 | 34.67797 | -77.67057 | 5044 ft | 160 kts | 10° |
| 2026-05-05 02:27 | 34.68879 | -77.66737 | 5044 ft | 160 kts | 10° |
| 2026-05-05 02:27 | 34.69962 | -77.66417 | 5047 ft | 160 kts | 10° |
| 2026-05-05 02:28 | 34.71042 | -77.66098 | 5049 ft | 160 kts | 11° |
| 2026-05-05 02:28 | 34.72125 | -77.65778 | 5050 ft | 160 kts | 10° |
| 2026-05-05 02:28 | 34.73206 | -77.65458 | 5049 ft | 160 kts | 10° |
| 2026-05-05 02:28 | 34.74286 | -77.65138 | 5049 ft | 160 kts | 10° |
| 2026-05-05 02:29 | 34.75366 | -77.64818 | 5050 ft | 160 kts | 10° |
| 2026-05-05 02:29 | 34.76447 | -77.64498 | 5053 ft | 160 kts | 10° |
| 2026-05-05 02:29 | 34.77526 | -77.64179 | 5051 ft | 160 kts | 10° |
| 2026-05-05 02:29 | 34.78608 | -77.63857 | 5051 ft | 160 kts | 10° |
| 2026-05-05 02:30 | 34.79676 | -77.63541 | 5053 ft | 160 kts | 10° |
| 2026-05-05 02:30 | 34.80757 | -77.63221 | 5051 ft | 160 kts | 10° |
| 2026-05-05 02:30 | 34.81850 | -77.62897 | 5053 ft | 160 kts | 10° |
| 2026-05-05 02:30 | 34.82913 | -77.62582 | 5051 ft | 159 kts | 10° |
| 2026-05-05 02:31 | 34.83992 | -77.62262 | 5052 ft | 159 kts | 10° |
| 2026-05-05 02:31 | 34.84881 | -77.61998 | 5051 ft | 159 kts | 10° |
| 2026-05-05 02:31 | 34.85956 | -77.61679 | 5081 ft | 157 kts | 10° |
| 2026-05-05 02:31 | 34.87018 | -77.61363 | 5096 ft | 157 kts | 10° |
| 2026-05-05 02:32 | 34.88082 | -77.61048 | 5095 ft | 158 kts | 10° |
| 2026-05-05 02:32 | 34.89153 | -77.60730 | 5098 ft | 159 kts | 10° |
| 2026-05-05 02:32 | 34.90230 | -77.60410 | 5099 ft | 160 kts | 10° |
| 2026-05-05 02:32 | 34.91301 | -77.60091 | 5101 ft | 160 kts | 10° |
| 2026-05-05 02:33 | 34.92384 | -77.59769 | 5099 ft | 160 kts | 9° |
| 2026-05-05 02:33 | 34.93466 | -77.59448 | 5102 ft | 160 kts | 10° |
| 2026-05-05 02:33 | 34.94549 | -77.59125 | 5100 ft | 160 kts | 10° |
| 2026-05-05 02:33 | 34.95630 | -77.58804 | 5098 ft | 160 kts | 10° |
| 2026-05-05 02:34 | 34.96713 | -77.58481 | 5097 ft | 160 kts | 10° |
| 2026-05-05 02:34 | 34.97793 | -77.58160 | 5097 ft | 160 kts | 10° |
| 2026-05-05 02:34 | 34.98873 | -77.57838 | 5095 ft | 159 kts | 10° |
| 2026-05-05 02:34 | 34.99949 | -77.57516 | 5095 ft | 160 kts | 10° |
| 2026-05-05 02:35 | 35.01029 | -77.57188 | 5097 ft | 160 kts | 10° |
| 2026-05-05 02:35 | 35.02112 | -77.56863 | 5095 ft | 160 kts | 10° |
| 2026-05-05 02:35 | 35.03192 | -77.56541 | 5094 ft | 160 kts | 9° |
| 2026-05-05 02:35 | 35.04274 | -77.56219 | 5092 ft | 160 kts | 9° |
| 2026-05-05 02:36 | 35.05338 | -77.55902 | 5091 ft | 160 kts | 9° |
| 2026-05-05 02:36 | 35.06420 | -77.55579 | 5093 ft | 160 kts | 9° |
| 2026-05-05 02:36 | 35.07505 | -77.55256 | 5091 ft | 160 kts | 10° |
| 2026-05-05 02:36 | 35.08589 | -77.54932 | 5085 ft | 160 kts | 10° |
| 2026-05-05 02:37 | 35.09673 | -77.54609 | 5088 ft | 160 kts | 9° |
| 2026-05-05 02:37 | 35.10758 | -77.54285 | 5087 ft | 160 kts | 9° |
| 2026-05-05 02:37 | 35.11843 | -77.53963 | 5088 ft | 161 kts | 9° |
| 2026-05-05 02:37 | 35.12937 | -77.53689 | 5089 ft | 160 kts | 7° |
| 2026-05-05 02:38 | 35.14034 | -77.53419 | 5091 ft | 161 kts | 7° |
| 2026-05-05 02:38 | 35.15130 | -77.53141 | 5089 ft | 160 kts | 7° |
| 2026-05-05 02:38 | 35.16221 | -77.52862 | 5089 ft | 160 kts | 7° |
| 2026-05-05 02:38 | 35.17296 | -77.52589 | 5088 ft | 160 kts | 7° |
| 2026-05-05 02:39 | 35.18387 | -77.52310 | 5091 ft | 160 kts | 8° |
| 2026-05-05 02:39 | 35.19482 | -77.52030 | 5093 ft | 161 kts | 7° |
| 2026-05-05 02:39 | 35.20576 | -77.51750 | 5089 ft | 161 kts | 7° |
| 2026-05-05 02:39 | 35.21668 | -77.51471 | 5093 ft | 160 kts | 7° |
| 2026-05-05 02:40 | 35.22760 | -77.51192 | 5096 ft | 160 kts | 7° |
| 2026-05-05 02:40 | 35.23857 | -77.50912 | 5095 ft | 161 kts | 7° |
| 2026-05-05 02:40 | 35.24953 | -77.50631 | 5096 ft | 161 kts | 7° |
| 2026-05-05 02:40 | 35.26050 | -77.50351 | 5094 ft | 161 kts | 7° |
| 2026-05-05 02:41 | 35.27145 | -77.50071 | 5095 ft | 161 kts | 7° |
| 2026-05-05 02:41 | 35.28242 | -77.49790 | 5098 ft | 161 kts | 7° |
| 2026-05-05 02:41 | 35.29340 | -77.49508 | 5099 ft | 161 kts | 7° |
| 2026-05-05 02:41 | 35.30424 | -77.49231 | 5097 ft | 161 kts | 7° |
| 2026-05-05 02:42 | 35.31527 | -77.48948 | 5098 ft | 161 kts | 7° |
| 2026-05-05 02:42 | 35.32626 | -77.48666 | 5095 ft | 161 kts | 7° |
| 2026-05-05 02:42 | 35.33727 | -77.48384 | 5098 ft | 161 kts | 7° |
| 2026-05-05 02:42 | 35.34823 | -77.48103 | 5093 ft | 161 kts | 7° |
| 2026-05-05 02:43 | 35.35917 | -77.47822 | 5094 ft | 161 kts | 7° |
| 2026-05-05 02:43 | 35.37013 | -77.47541 | 5096 ft | 161 kts | 7° |
| 2026-05-05 02:43 | 35.38107 | -77.47260 | 5093 ft | 160 kts | 7° |
| 2026-05-05 02:43 | 35.39201 | -77.46979 | 5093 ft | 161 kts | 7° |
| 2026-05-05 02:44 | 35.40284 | -77.46701 | 5090 ft | 160 kts | 7° |
| 2026-05-05 02:44 | 35.41375 | -77.46421 | 5093 ft | 160 kts | 7° |
| 2026-05-05 02:44 | 35.42469 | -77.46140 | 5092 ft | 160 kts | 6° |
| 2026-05-05 02:44 | 35.43562 | -77.45859 | 5092 ft | 161 kts | 7° |
| 2026-05-05 02:45 | 35.44658 | -77.45577 | 5090 ft | 161 kts | 7° |
| 2026-05-05 02:45 | 35.45757 | -77.45294 | 5091 ft | 161 kts | 7° |
| 2026-05-05 02:45 | 35.46859 | -77.45011 | 5072 ft | 162 kts | 7° |
| 2026-05-05 02:45 | 35.47961 | -77.44728 | 5073 ft | 162 kts | 7° |
| 2026-05-05 02:46 | 35.49063 | -77.44444 | 5073 ft | 162 kts | 7° |
| 2026-05-05 02:46 | 35.50163 | -77.44161 | 5072 ft | 161 kts | 7° |
| 2026-05-05 02:46 | 35.51263 | -77.43877 | 5071 ft | 162 kts | 7° |
| 2026-05-05 02:46 | 35.52365 | -77.43594 | 5075 ft | 162 kts | 7° |
| 2026-05-05 02:47 | 35.53465 | -77.43310 | 5072 ft | 162 kts | 7° |
| 2026-05-05 02:47 | 35.54565 | -77.43027 | 5076 ft | 161 kts | 7° |
| 2026-05-05 02:47 | 35.55670 | -77.42742 | 5075 ft | 161 kts | 7° |
| 2026-05-05 02:47 | 35.56783 | -77.42455 | 4962 ft | 164 kts | 7° |
| 2026-05-05 02:48 | 35.57890 | -77.42169 | 4836 ft | 165 kts | 6° |
| 2026-05-05 02:48 | 35.59017 | -77.41878 | 4707 ft | 165 kts | 6° |
| 2026-05-05 02:48 | 35.60144 | -77.41587 | 4584 ft | 166 kts | 6° |
| 2026-05-05 02:48 | 35.61279 | -77.41294 | 4459 ft | 167 kts | 6° |
| 2026-05-05 02:49 | 35.62420 | -77.41000 | 4330 ft | 168 kts | 6° |
| 2026-05-05 02:49 | 35.63564 | -77.40704 | 4207 ft | 168 kts | 6° |
| 2026-05-05 02:49 | 35.64711 | -77.40408 | 4083 ft | 169 kts | 6° |
| 2026-05-05 02:49 | 35.65860 | -77.40111 | 3960 ft | 169 kts | 6° |
| 2026-05-05 02:50 | 35.67022 | -77.39811 | 3836 ft | 171 kts | 6° |
| 2026-05-05 02:50 | 35.68188 | -77.39509 | 3714 ft | 171 kts | 6° |
| 2026-05-05 02:50 | 35.69351 | -77.39207 | 3590 ft | 171 kts | 6° |
| 2026-05-05 02:50 | 35.70508 | -77.38908 | 3472 ft | 172 kts | 6° |
| 2026-05-05 02:51 | 35.71677 | -77.38605 | 3346 ft | 170 kts | 6° |
| 2026-05-05 02:51 | 35.72835 | -77.38305 | 3222 ft | 170 kts | 7° |
| 2026-05-05 02:51 | 35.73980 | -77.38008 | 3166 ft | 164 kts | 6° |
| 2026-05-05 02:51 | 35.75083 | -77.37721 | 3160 ft | 159 kts | 5° |
| 2026-05-05 02:52 | 35.76152 | -77.37445 | 3153 ft | 155 kts | 5° |
| 2026-05-05 02:52 | 35.77192 | -77.37176 | 3153 ft | 154 kts | 5° |
| 2026-05-05 02:52 | 35.78230 | -77.36907 | 3152 ft | 152 kts | 5° |
| 2026-05-05 02:52 | 35.79258 | -77.36640 | 3155 ft | 149 kts | 5° |
| 2026-05-05 02:53 | 35.80275 | -77.36377 | 3158 ft | 149 kts | 4° |
| 2026-05-05 02:53 | 35.81291 | -77.36122 | 3133 ft | 149 kts | 4° |
| 2026-05-05 02:53 | 35.82332 | -77.35899 | 2964 ft | 155 kts | 4° |
| 2026-05-05 02:53 | 35.83391 | -77.35623 | 2891 ft | 154 kts | 7° |
| 2026-05-05 02:54 | 35.84432 | -77.35304 | 2796 ft | 155 kts | 7° |
| 2026-05-05 02:54 | 35.85142 | -77.35123 | 2695 ft | 158 kts | 5° |
| 2026-05-05 02:54 | 35.86240 | -77.34889 | 2573 ft | 161 kts | 4° |
| 2026-05-05 02:54 | 35.87661 | -77.34496 | 2524 ft | 153 kts | 2° |
| 2026-05-05 02:55 | 35.88689 | -77.34588 | 2462 ft | 146 kts | 341° |
| 2026-05-05 02:55 | 35.89374 | -77.34733 | 2366 ft | 150 kts | 339° |
| 2026-05-05 02:55 | 35.90414 | -77.34971 | 2231 ft | 154 kts | 339° |
| 2026-05-05 02:55 | 35.91451 | -77.35232 | 2218 ft | 148 kts | 339° |
| 2026-05-05 02:56 | 35.92450 | -77.35468 | 2194 ft | 146 kts | 339° |
| 2026-05-05 02:56 | 35.93440 | -77.35709 | 2124 ft | 148 kts | 339° |
| 2026-05-05 02:56 | 35.94460 | -77.35866 | 2113 ft | 151 kts | 356° |
| 2026-05-05 02:56 | 35.95410 | -77.35315 | 2109 ft | 155 kts | 49° |
| 2026-05-05 02:57 | 35.95762 | -77.34159 | 2134 ft | 138 kts | 104° |
| 2026-05-05 02:57 | 35.95469 | -77.33178 | 2225 ft | 109 kts | 145° |
| 2026-05-05 02:57 | 35.94882 | -77.32724 | 2198 ft | 96 kts | 178° |
| 2026-05-05 02:57 | 35.94246 | -77.32702 | 2218 ft | 90 kts | 195° |
| 2026-05-05 02:58 | 35.93628 | -77.32840 | 2199 ft | 92 kts | 199° |
| 2026-05-05 02:58 | 35.92985 | -77.33052 | 2109 ft | 97 kts | 202° |
| 2026-05-05 02:58 | 35.92351 | -77.33275 | 2176 ft | 92 kts | 203° |
| 2026-05-05 02:58 | 35.91731 | -77.33504 | 2158 ft | 95 kts | 203° |
| 2026-05-05 02:59 | 35.91098 | -77.33748 | 2173 ft | 95 kts | 202° |
| 2026-05-05 02:59 | 35.90465 | -77.33969 | 2188 ft | 95 kts | 200° |
| 2026-05-05 02:59 | 35.89832 | -77.34167 | 2225 ft | 92 kts | 199° |
| 2026-05-05 02:59 | 35.89190 | -77.34292 | 2200 ft | 96 kts | 195° |
| 2026-05-05 03:00 | 35.88526 | -77.34352 | 2244 ft | 94 kts | 191° |
| 2026-05-05 03:00 | 35.87863 | -77.34306 | 2243 ft | 98 kts | 186° |
| 2026-05-05 03:00 | 35.87177 | -77.34365 | 2155 ft | 101 kts | 197° |
| 2026-05-05 03:00 | 35.86492 | -77.34566 | 2085 ft | 103 kts | 200° |
| 2026-05-05 03:01 | 35.85798 | -77.34792 | 2035 ft | 101 kts | 200° |
| 2026-05-05 03:01 | 35.85096 | -77.34952 | 1924 ft | 107 kts | 196° |
| 2026-05-05 03:01 | 35.84339 | -77.35075 | 1832 ft | 111 kts | 193° |
| 2026-05-05 03:01 | 35.83574 | -77.35168 | 1760 ft | 111 kts | 194° |
| 2026-05-05 03:02 | 35.82800 | -77.35307 | 1644 ft | 114 kts | 195° |
| 2026-05-05 03:02 | 35.82030 | -77.35477 | 1550 ft | 110 kts | 197° |
| 2026-05-05 03:02 | 35.81276 | -77.35623 | 1461 ft | 108 kts | 194° |
| 2026-05-05 03:02 | 35.80538 | -77.35716 | 1466 ft | 103 kts | 191° |
| 2026-05-05 03:03 | 35.79832 | -77.35794 | 1454 ft | 102 kts | 191° |
| 2026-05-05 03:03 | 35.79136 | -77.35885 | 1451 ft | 100 kts | 194° |
| 2026-05-05 03:03 | 35.78459 | -77.36032 | 1478 ft | 96 kts | 196° |
| 2026-05-05 03:03 | 35.77827 | -77.36187 | 1524 ft | 91 kts | 196° |
| 2026-05-05 03:04 | 35.77184 | -77.36290 | 1473 ft | 95 kts | 188° |
| 2026-05-05 03:04 | 35.76531 | -77.36328 | 1480 ft | 94 kts | 188° |
| 2026-05-05 03:04 | 35.75883 | -77.36412 | 1451 ft | 95 kts | 193° |
| 2026-05-05 03:04 | 35.75233 | -77.36513 | 1461 ft | 94 kts | 193° |
| 2026-05-05 03:05 | 35.74581 | -77.36600 | 1473 ft | 93 kts | 192° |
| 2026-05-05 03:05 | 35.73946 | -77.36697 | 1498 ft | 92 kts | 194° |
| 2026-05-05 03:05 | 35.73309 | -77.36851 | 1487 ft | 94 kts | 193° |
| 2026-05-05 03:05 | 35.72660 | -77.36958 | 1509 ft | 93 kts | 188° |
| 2026-05-05 03:06 | 35.72068 | -77.37004 | 1513 ft | 76 kts | 190° |
| 2026-05-05 03:06 | 35.71548 | -77.37061 | 1374 ft | 73 kts | 192° |
| 2026-05-05 03:06 | 35.71079 | -77.37145 | 1322 ft | 68 kts | 194° |
| 2026-05-05 03:06 | 35.70609 | -77.37250 | 1232 ft | 68 kts | 196° |
| 2026-05-05 03:07 | 35.70154 | -77.37345 | 1158 ft | 67 kts | 192° |
| 2026-05-05 03:07 | 35.69686 | -77.37412 | 1074 ft | 68 kts | 192° |
| 2026-05-05 03:07 | 35.69207 | -77.37509 | 974 ft | 71 kts | 192° |
| 2026-05-05 03:07 | 35.68707 | -77.37568 | 886 ft | 73 kts | 186° |
| 2026-05-05 03:08 | 35.68185 | -77.37655 | 747 ft | 79 kts | 193° |
| 2026-05-05 03:08 | 35.67629 | -77.37784 | 641 ft | 81 kts | 187° |
| 2026-05-05 03:08 | 35.67069 | -77.37847 | 525 ft | 85 kts | 186° |
| 2026-05-05 03:08 | 35.66483 | -77.37939 | 430 ft | 84 kts | 189° |
| 2026-05-05 03:09 | 35.65904 | -77.38029 | 316 ft | 83 kts | 190° |
| 2026-05-05 03:09 | 35.65390 | -77.38119 | 239 ft | 64 kts | 188° |
| 2026-05-05 03:09 | 35.64976 | -77.38193 | 131 ft | 58 kts | 189° |
| 2026-05-05 03:09 | 35.64578 | -77.38245 | 53 ft | 57 kts | 188° |
| 2026-05-05 03:10 | 35.64213 | -77.38312 | 27 ft | 45 kts | 192° |
| 2026-05-05 03:10 | 35.64014 | -77.38347 | 27 ft | 17 kts | 187° |
| 2026-05-05 03:10 | 35.63935 | -77.38325 | 27 ft | 12 kts | 84° |
| 2026-05-05 03:10 | 35.63933 | -77.38260 | 27 ft | 0 kts | 104° |
| 2026-05-05 03:12 | 35.63903 | -77.38233 | 27 ft | 13 kts | 183° |
| 2026-05-05 03:12 | 35.63805 | -77.38247 | 27 ft | 15 kts | 187° |
| 2026-05-05 03:12 | 35.63703 | -77.38263 | 27 ft | 14 kts | 183° |
| 2026-05-05 03:13 | 35.63602 | -77.38276 | 28 ft | 16 kts | 188° |
| 2026-05-05 03:13 | 35.63497 | -77.38296 | 27 ft | 15 kts | 188° |
| 2026-05-05 03:13 | 35.63401 | -77.38313 | 27 ft | 13 kts | 182° |
| 2026-05-05 03:13 | 35.63360 | -77.38242 | 27 ft | 8 kts | 96° |
| 2026-05-05 03:14 | 35.63332 | -77.38203 | 27 ft | 0 kts | 190° |